createdAt,value
2019-04-13T00:01:47.224Z,11.23
2019-04-13T00:04:28.617Z,11.67
2019-04-13T00:06:48.811Z,11.30
2019-04-13T00:09:18.542Z,11.87
2019-04-13T00:11:51.492Z,10.97
2019-04-13T00:14:21.110Z,11.63
2019-04-13T00:16:49.741Z,12.27
2019-04-13T00:19:18.304Z,11.60
2019-04-13T00:21:49.928Z,11.33
2019-04-13T00:24:20.074Z,10.97
2019-04-13T00:26:48.634Z,11.93
2019-04-13T00:29:17.214Z,11.33
2019-04-13T00:31:45.806Z,11.67
2019-04-13T00:34:14.371Z,11.77
2019-04-13T00:36:43.009Z,11.90
2019-04-13T00:39:11.669Z,12.03
2019-04-13T00:41:40.578Z,12.07
2019-04-13T00:44:09.140Z,13.17
2019-04-13T00:46:37.707Z,11.73
2019-04-13T00:49:06.367Z,12.03
2019-04-13T00:51:35.004Z,12.50
2019-04-13T00:54:03.693Z,11.73
2019-04-13T00:56:32.250Z,12.23
2019-04-13T00:59:00.831Z,12.17
2019-04-13T01:01:29.545Z,12.37
2019-04-13T01:03:59.764Z,11.97
2019-04-13T01:06:28.431Z,11.97
2019-04-13T01:08:57.013Z,11.50
2019-04-13T01:11:25.686Z,13.13
2019-04-13T01:13:54.224Z,13.23
2019-04-13T01:16:23.713Z,12.77
2019-04-13T01:18:52.773Z,12.03
2019-04-13T01:21:21.351Z,12.00
2019-04-13T01:23:51.545Z,11.83
2019-04-13T01:26:20.138Z,12.40
2019-04-13T01:28:50.349Z,13.13
2019-04-13T01:31:18.965Z,13.07
2019-04-13T01:33:50.421Z,12.43
2019-04-13T01:36:18.648Z,12.60
2019-04-13T01:38:47.242Z,12.20
2019-04-13T01:41:15.809Z,12.60
2019-04-13T01:43:44.417Z,13.10
2019-04-13T01:46:13.262Z,13.90
2019-04-13T01:48:41.817Z,12.03
2019-04-13T01:51:10.425Z,12.70
2019-04-13T01:53:38.998Z,12.83
2019-04-13T01:56:07.606Z,12.20
2019-04-13T01:58:36.157Z,13.03
2019-04-13T02:01:15.203Z,13.33
2019-04-13T02:03:45.384Z,12.50
2019-04-13T02:06:13.945Z,12.70
2019-04-13T02:08:52.952Z,13.13
2019-04-13T02:11:32.451Z,13.17
2019-04-13T02:14:01.112Z,13.23
2019-04-13T02:16:29.996Z,12.77
2019-04-13T02:18:58.698Z,12.47
2019-04-13T02:21:27.254Z,12.73
2019-04-13T02:23:55.835Z,12.30
2019-04-13T02:26:24.469Z,12.67
2019-04-13T02:28:53.024Z,13.20
2019-04-13T02:31:21.585Z,13.17
2019-04-13T02:33:50.317Z,13.17
2019-04-13T02:36:21.561Z,13.77
2019-04-13T02:38:50.155Z,12.83
2019-04-13T02:41:18.723Z,13.50
2019-04-13T02:43:47.384Z,12.40
2019-04-13T02:46:16.079Z,13.20
2019-04-13T02:48:47.592Z,12.87
2019-04-13T02:51:16.185Z,12.77
2019-04-13T02:53:44.751Z,13.43
2019-04-13T02:56:13.396Z,14.03
2019-04-13T02:58:41.990Z,13.73
2019-04-13T03:01:10.612Z,13.17
2019-04-13T03:03:39.220Z,13.70
2019-04-13T03:06:07.819Z,13.63
2019-04-13T03:08:36.452Z,13.30
2019-04-13T03:11:05.097Z,13.40
2019-04-13T03:13:33.738Z,13.10
2019-04-13T03:16:12.896Z,14.13
2019-04-13T03:18:59.915Z,13.57
2019-04-13T03:21:28.632Z,13.03
2019-04-13T03:23:57.199Z,14.07
2019-04-13T03:26:25.785Z,13.80
2019-04-13T03:28:54.455Z,13.67
2019-04-13T03:31:24.062Z,13.93
2019-04-13T03:33:52.659Z,13.57
2019-04-13T03:36:21.365Z,13.17
2019-04-13T03:38:50.041Z,14.13
2019-04-13T03:41:18.611Z,14.63
2019-04-13T03:43:49.865Z,13.90
2019-04-13T03:46:18.463Z,14.77
2019-04-13T03:48:47.307Z,13.30
2019-04-13T03:51:18.868Z,14.67
2019-04-13T03:53:47.455Z,14.30
2019-04-13T03:56:16.054Z,13.20
2019-04-13T03:58:45.112Z,13.17
2019-04-13T04:01:14.429Z,14.00
2019-04-13T04:03:43.062Z,13.93
2019-04-13T04:06:12.194Z,13.50
2019-04-13T04:08:40.829Z,14.37
2019-04-13T04:11:09.426Z,14.80
2019-04-13T04:13:37.993Z,14.60
2019-04-13T04:16:09.592Z,12.77
2019-04-13T04:18:38.170Z,14.00
2019-04-13T04:21:06.742Z,14.33
2019-04-13T04:23:35.342Z,13.30
2019-04-13T04:26:03.968Z,14.40
2019-04-13T04:28:34.170Z,13.87
2019-04-13T04:31:02.758Z,13.63
2019-04-13T04:33:31.318Z,14.23
2019-04-13T04:35:59.909Z,14.17
2019-04-13T04:38:28.483Z,13.57
2019-04-13T04:40:57.060Z,15.17
2019-04-13T04:43:25.665Z,14.33
2019-04-13T04:45:55.121Z,13.90
2019-04-13T04:48:23.736Z,14.73
2019-04-13T04:50:52.381Z,14.43
2019-04-13T04:53:21.051Z,15.07
2019-04-13T04:55:49.668Z,14.23
2019-04-13T04:58:18.327Z,14.13
2019-04-13T05:00:46.981Z,13.77
2019-04-13T05:03:15.531Z,14.63
2019-04-13T05:05:44.175Z,14.37
2019-04-13T05:08:14.636Z,14.33
2019-04-13T05:10:42.969Z,14.07
2019-04-13T05:13:11.561Z,14.00
2019-04-13T05:15:40.450Z,13.70
2019-04-13T05:18:11.211Z,14.07
2019-04-13T05:20:41.459Z,13.93
2019-04-13T05:23:10.023Z,14.93
2019-04-13T05:25:38.605Z,15.10
2019-04-13T05:28:07.181Z,14.40
2019-04-13T05:30:35.735Z,15.37
2019-04-13T05:33:04.693Z,14.77
2019-04-13T05:35:33.193Z,15.37
2019-04-13T05:38:04.709Z,14.80
2019-04-13T05:40:33.345Z,14.80
2019-04-13T05:43:04.873Z,14.80
2019-04-13T05:45:33.459Z,14.60
2019-04-13T05:48:03.569Z,14.63
2019-04-13T05:50:32.111Z,14.00
2019-04-13T05:53:00.731Z,15.10
2019-04-13T05:55:29.384Z,15.43
2019-04-13T05:57:57.968Z,14.10
2019-04-13T06:00:26.536Z,14.80
2019-04-13T06:02:55.872Z,14.63
2019-04-13T06:05:24.665Z,14.67
2019-04-13T06:07:53.564Z,14.73
2019-04-13T06:10:22.228Z,14.50
2019-04-13T06:12:53.510Z,15.00
2019-04-13T06:15:21.050Z,15.13
2019-04-13T06:17:49.640Z,15.90
2019-04-13T06:20:18.356Z,14.80
2019-04-13T06:22:47.674Z,14.37
2019-04-13T06:25:16.755Z,14.37
2019-04-13T06:27:45.401Z,14.57
2019-04-13T06:30:30.540Z,14.90
2019-04-13T06:33:16.873Z,15.60
2019-04-13T06:35:45.460Z,14.73
2019-04-13T06:38:16.216Z,14.77
2019-04-13T06:40:51.556Z,14.60
2019-04-13T06:43:27.237Z,14.83
2019-04-13T06:45:54.846Z,15.40
2019-04-13T06:48:23.904Z,15.00
2019-04-13T06:50:52.484Z,15.17
2019-04-13T06:53:21.036Z,14.90
2019-04-13T06:55:49.634Z,15.53
2019-04-13T06:58:18.207Z,14.33
2019-04-13T07:00:48.603Z,16.00
2019-04-13T07:03:20.043Z,14.17
2019-04-13T07:05:48.629Z,15.67
2019-04-13T07:08:23.376Z,15.77
2019-04-13T07:10:56.805Z,15.23
2019-04-13T07:13:29.843Z,14.73
2019-04-13T07:16:05.637Z,14.83
2019-04-13T07:18:36.066Z,15.70
2019-04-13T07:21:04.489Z,14.53
2019-04-13T07:23:34.007Z,14.40
2019-04-13T07:26:05.684Z,16.10
2019-04-13T07:28:32.888Z,15.87
2019-04-13T07:31:01.829Z,15.40
2019-04-13T07:33:30.453Z,15.27
2019-04-13T07:36:10.658Z,15.60
2019-04-13T07:38:36.709Z,15.57
2019-04-13T07:41:05.342Z,14.87
2019-04-13T07:43:39.177Z,15.00
2019-04-13T07:46:29.319Z,14.60
2019-04-13T07:49:15.673Z,13.60
2019-04-13T07:51:45.874Z,15.77
2019-04-13T07:54:14.437Z,14.63
2019-04-13T07:56:43.026Z,14.33
2019-04-13T07:59:11.593Z,15.67
2019-04-13T08:01:40.245Z,15.13
2019-04-13T08:04:11.843Z,15.77
2019-04-13T08:06:43.458Z,15.43
2019-04-13T08:09:12.124Z,15.47
2019-04-13T08:11:40.679Z,15.03
2019-04-13T08:14:10.880Z,15.90
2019-04-13T08:16:39.457Z,15.00
2019-04-13T08:19:12.327Z,15.30
2019-04-13T08:21:41.782Z,14.80
2019-04-13T08:24:10.348Z,16.57
2019-04-13T08:26:38.985Z,15.37
2019-04-13T08:29:09.751Z,15.80
2019-04-13T08:31:38.376Z,15.30
2019-04-13T08:34:06.973Z,14.97
2019-04-13T08:36:35.529Z,14.60
2019-04-13T08:39:05.258Z,14.87
2019-04-13T08:41:33.918Z,14.30
2019-04-13T08:44:05.649Z,14.67
2019-04-13T08:46:32.945Z,15.40
2019-04-13T08:49:01.588Z,13.87
2019-04-13T08:51:30.248Z,15.53
2019-04-13T08:53:58.924Z,14.33
2019-04-13T08:56:31.819Z,14.87
2019-04-13T08:59:04.179Z,15.17
2019-04-13T09:01:40.415Z,15.83
2019-04-13T09:04:08.951Z,13.63
2019-04-13T09:06:41.748Z,13.90
2019-04-13T09:09:25.450Z,13.90
2019-04-13T09:11:47.251Z,13.37
2019-04-13T09:14:15.933Z,13.97
2019-04-13T09:16:45.122Z,14.67
2019-04-13T09:19:27.159Z,13.27
2019-04-13T09:21:57.822Z,12.47
2019-04-13T09:24:27.278Z,13.73
2019-04-13T09:26:55.846Z,14.30
2019-04-13T09:29:24.713Z,12.90
2019-04-13T09:31:53.297Z,13.07
2019-04-13T09:34:30.611Z,12.43
2019-04-13T09:37:00.129Z,12.90
2019-04-13T09:39:26.915Z,14.03
2019-04-13T09:41:55.505Z,13.67
2019-04-13T09:44:31.285Z,13.63
2019-04-13T09:47:00.919Z,11.13
2019-04-13T09:49:29.568Z,12.73
2019-04-13T09:52:00.224Z,13.03
2019-04-13T09:54:28.340Z,12.07
2019-04-13T09:57:01.415Z,13.70
2019-04-13T09:59:30.316Z,13.30
2019-04-13T10:01:59.192Z,13.33
2019-04-13T10:04:27.744Z,13.77
2019-04-13T10:06:56.412Z,13.40
2019-04-13T10:09:31.164Z,12.07
2019-04-13T10:12:13.100Z,12.73
2019-04-13T10:14:48.892Z,12.67
2019-04-13T10:17:27.933Z,12.40
2019-04-13T10:19:56.596Z,13.13
2019-04-13T10:22:27.820Z,12.73
2019-04-13T10:24:56.411Z,13.07
2019-04-13T10:27:25.008Z,12.97
2019-04-13T10:29:54.582Z,13.17
2019-04-13T10:32:25.832Z,13.43
2019-04-13T10:34:58.951Z,12.97
2019-04-13T10:37:31.768Z,14.10
2019-04-13T10:40:00.390Z,11.10
2019-04-13T10:42:28.955Z,12.30
2019-04-13T10:44:59.221Z,12.60
2019-04-13T10:47:29.461Z,12.87
2019-04-13T10:50:12.620Z,12.80
2019-04-13T10:52:39.487Z,12.70
2019-04-13T10:55:10.806Z,12.13
2019-04-13T10:57:39.742Z,11.90
2019-04-13T11:00:12.289Z,11.37
2019-04-13T11:02:40.846Z,12.77
2019-04-13T11:05:09.496Z,13.60
2019-04-13T11:07:38.064Z,12.53
2019-04-13T11:10:07.218Z,13.03
2019-04-13T11:12:36.751Z,12.80
2019-04-13T11:15:11.353Z,12.40
2019-04-13T11:17:40.212Z,12.97
2019-04-13T11:20:13.544Z,12.30
2019-04-13T11:22:39.248Z,12.93
2019-04-13T11:25:08.103Z,12.97
2019-04-13T11:27:37.456Z,13.67
2019-04-13T11:30:06.746Z,12.27
2019-04-13T11:32:40.783Z,11.83
2019-04-13T11:35:10.098Z,12.47
2019-04-13T11:37:42.600Z,12.97
2019-04-13T11:40:11.862Z,13.30
2019-04-13T11:42:42.055Z,12.77
2019-04-13T11:45:28.260Z,12.57
2019-04-13T11:48:07.770Z,13.03
2019-04-13T11:50:40.642Z,11.90
2019-04-13T11:53:09.235Z,17.20
2019-04-13T11:55:40.831Z,20.47
2019-04-13T11:58:10.973Z,21.93
2019-04-13T12:00:42.793Z,22.90
2019-04-13T12:03:12.996Z,23.53
2019-04-13T12:06:06.339Z,21.90
2019-04-13T12:08:15.107Z,21.60
2019-04-13T12:10:48.308Z,23.10
2019-04-13T12:13:18.504Z,16.60
2019-04-13T12:16:04.936Z,14.80
2019-04-13T12:18:43.919Z,13.50
2019-04-13T12:21:30.348Z,13.37
2019-04-13T12:24:01.531Z,13.23
2019-04-13T12:26:30.124Z,12.33
2019-04-13T12:28:59.885Z,12.73
2019-04-13T12:31:28.588Z,13.67
2019-04-13T12:34:02.978Z,13.77
2019-04-13T12:36:28.666Z,13.20
2019-04-13T12:38:57.354Z,11.90
2019-04-13T12:41:45.716Z,13.00
2019-04-13T12:44:19.934Z,13.17
2019-04-13T12:46:48.606Z,13.70
2019-04-13T12:49:17.169Z,12.57
2019-04-13T12:51:45.799Z,13.73
2019-04-13T12:54:29.292Z,12.97
2019-04-13T12:56:58.528Z,12.60
2019-04-13T12:59:37.176Z,12.33
2019-04-13T13:02:12.020Z,12.27
2019-04-13T13:04:42.231Z,13.17
2019-04-13T13:07:11.306Z,13.53
2019-04-13T13:09:42.462Z,12.83
2019-04-13T13:12:14.477Z,12.93
2019-04-13T13:14:43.583Z,13.70
2019-04-13T13:17:12.137Z,12.93
2019-04-13T13:19:47.994Z,13.43
2019-04-13T13:22:18.109Z,13.27
2019-04-13T13:24:46.698Z,13.17
2019-04-13T13:27:19.598Z,12.97
2019-04-13T13:29:49.686Z,13.33
2019-04-13T13:32:18.294Z,11.57
2019-04-13T13:34:49.515Z,12.30
2019-04-13T13:37:21.004Z,12.90
2019-04-13T13:39:49.736Z,12.53
2019-04-13T13:42:18.290Z,12.53
2019-04-13T13:44:49.770Z,12.03
2019-04-13T13:47:33.314Z,13.40
2019-04-13T13:50:01.956Z,12.70
2019-04-13T13:52:30.528Z,13.13
2019-04-13T13:54:59.130Z,12.60
2019-04-13T13:57:33.144Z,12.87
2019-04-13T14:00:00.968Z,13.10
2019-04-13T14:02:33.797Z,12.93
2019-04-13T14:05:05.903Z,12.70
2019-04-13T14:07:36.065Z,13.47
2019-04-13T14:10:17.697Z,13.70
2019-04-13T14:12:49.241Z,13.23
2019-04-13T14:15:18.489Z,12.43
2019-04-13T14:17:51.316Z,12.80
2019-04-13T14:20:20.696Z,13.73
2019-04-13T14:22:49.347Z,14.07
2019-04-13T14:25:20.793Z,13.00
2019-04-13T14:27:49.364Z,12.87
2019-04-13T14:30:19.611Z,13.67
2019-04-13T14:32:48.185Z,14.47
2019-04-13T14:35:18.296Z,13.90
2019-04-13T14:37:51.252Z,13.27
2019-04-13T14:40:25.928Z,14.13
2019-04-13T14:42:54.540Z,13.83
2019-04-13T14:45:28.783Z,13.27
2019-04-13T14:48:00.309Z,14.00
2019-04-13T14:50:35.907Z,14.07
2019-04-13T14:53:01.926Z,12.83
2019-04-13T14:55:30.556Z,13.20
2019-04-13T14:58:09.411Z,13.53
2019-04-13T15:00:35.465Z,13.87
2019-04-13T15:03:09.670Z,14.23
2019-04-13T15:05:49.852Z,13.40
2019-04-13T15:08:19.656Z,14.23
2019-04-13T15:10:57.936Z,13.83
2019-04-13T15:13:31.640Z,14.17
2019-04-13T15:16:02.470Z,14.00
2019-04-13T15:18:32.636Z,13.30
2019-04-13T15:21:02.763Z,13.93
2019-04-13T15:23:40.021Z,14.00
2019-04-13T15:26:10.253Z,14.20
2019-04-13T15:28:40.944Z,13.83
2019-04-13T15:31:12.118Z,13.60
2019-04-13T15:33:41.392Z,14.27
2019-04-13T15:36:11.317Z,12.67
2019-04-13T15:38:45.306Z,12.70
2019-04-13T15:41:14.241Z,13.13
2019-04-13T15:43:42.944Z,12.43
2019-04-13T15:46:14.263Z,12.67
2019-04-13T15:48:43.065Z,13.00
2019-04-13T15:51:11.748Z,13.73
2019-04-13T15:54:00.829Z,13.50
2019-04-13T15:56:36.491Z,14.63
2019-04-13T15:59:05.831Z,13.87
2019-04-13T16:01:36.839Z,13.10
2019-04-13T16:04:05.504Z,12.97
2019-04-13T16:06:34.076Z,13.10
2019-04-13T16:09:22.640Z,13.03
2019-04-13T16:12:04.612Z,13.57
2019-04-13T16:14:33.052Z,13.67
2019-04-13T16:17:01.674Z,12.90
2019-04-13T16:19:30.866Z,13.37
2019-04-13T16:22:00.354Z,13.57
2019-04-13T16:24:28.974Z,14.00
2019-04-13T16:26:57.574Z,13.40
2019-04-13T16:29:38.139Z,13.00
2019-04-13T16:32:27.348Z,14.13
2019-04-13T16:35:00.164Z,13.90
2019-04-13T16:37:30.486Z,14.20
2019-04-13T16:39:59.903Z,13.70
2019-04-13T16:42:32.916Z,13.27
2019-04-13T16:45:19.418Z,13.47
2019-04-13T16:47:53.930Z,13.50
2019-04-13T16:50:28.172Z,13.67
2019-04-13T16:53:10.343Z,13.13
2019-04-13T16:55:43.729Z,13.67
2019-04-13T16:58:29.964Z,13.27
2019-04-13T17:01:00.331Z,13.17
2019-04-13T17:03:40.596Z,13.80
2019-04-13T17:06:11.248Z,12.90
2019-04-13T17:08:39.780Z,13.73
2019-04-13T17:11:09.096Z,14.20
2019-04-13T17:13:37.722Z,12.90
2019-04-13T17:16:07.190Z,13.63
2019-04-13T17:18:48.158Z,13.97
2019-04-13T17:21:24.909Z,13.70
2019-04-13T17:23:58.960Z,13.83
2019-04-13T17:26:45.919Z,13.90
2019-04-13T17:29:16.771Z,14.47
2019-04-13T17:32:04.309Z,13.13
2019-04-13T17:34:50.552Z,13.67
2019-04-13T17:37:19.241Z,14.37
2019-04-13T17:39:48.383Z,14.43
2019-04-13T17:42:41.551Z,14.43
2019-04-13T17:45:16.872Z,13.10
2019-04-13T17:47:55.894Z,13.33
2019-04-13T17:50:42.892Z,13.57
2019-04-13T17:53:22.387Z,13.83
2019-04-13T17:55:59.174Z,14.53
2019-04-13T17:58:29.749Z,14.40
2019-04-13T18:01:16.744Z,13.57
2019-04-13T18:04:01.806Z,14.27
2019-04-13T18:06:47.323Z,14.47
2019-04-13T18:09:25.105Z,13.60
2019-04-13T18:12:14.248Z,14.23
2019-04-13T18:14:46.656Z,13.27
2019-04-13T18:17:33.070Z,13.10
2019-04-13T18:20:02.955Z,13.70
2019-04-13T18:22:31.616Z,12.90
2019-04-13T18:25:01.263Z,12.87
2019-04-13T18:27:31.087Z,13.37
2019-04-13T18:30:10.096Z,13.67
2019-04-13T18:32:30.143Z,12.87
2019-04-13T18:34:58.766Z,12.67
2019-04-13T18:37:28.348Z,12.77
2019-04-13T18:40:01.328Z,12.73
2019-04-13T18:42:30.569Z,14.37
2019-04-13T18:44:59.449Z,13.10
2019-04-13T18:47:30.653Z,12.57
2019-04-13T18:49:59.616Z,13.03
2019-04-13T18:52:28.336Z,13.83
2019-04-13T18:54:57.279Z,13.77
2019-04-13T18:57:25.984Z,13.97
2019-04-13T18:59:59.376Z,13.53
2019-04-13T19:02:33.348Z,14.40
2019-04-13T19:05:02.301Z,14.47
2019-04-13T19:07:30.800Z,13.60
2019-04-13T19:09:59.374Z,14.13
2019-04-13T19:12:28.228Z,13.77
2019-04-13T19:14:56.790Z,14.67
2019-04-13T19:17:25.479Z,13.23
2019-04-13T19:19:54.037Z,13.83
2019-04-13T19:22:22.682Z,13.80
2019-04-13T19:24:52.196Z,13.20
2019-04-13T19:27:26.148Z,13.83
2019-04-13T19:29:54.800Z,13.47
2019-04-13T19:32:23.379Z,13.87
2019-04-13T19:34:51.952Z,13.73
2019-04-13T19:37:23.216Z,13.47
2019-04-13T19:39:51.848Z,13.40
2019-04-13T19:42:21.971Z,13.20
2019-04-13T19:44:50.640Z,13.23
2019-04-13T19:47:20.860Z,13.13
2019-04-13T19:49:49.471Z,14.27
2019-04-13T19:52:31.419Z,13.53
2019-04-13T19:55:00.041Z,13.37
2019-04-13T19:57:28.724Z,13.33
2019-04-13T19:59:57.293Z,13.17
2019-04-13T20:02:28.352Z,13.93
2019-04-13T20:05:00.908Z,13.20
2019-04-13T20:07:30.609Z,14.30
2019-04-13T20:09:59.257Z,14.40
2019-04-13T20:12:27.820Z,15.20
2019-04-13T20:14:56.927Z,13.83
2019-04-13T20:17:26.377Z,14.90
2019-04-13T20:19:54.979Z,14.73
2019-04-13T20:22:23.769Z,14.73
2019-04-13T20:24:54.262Z,15.20
2019-04-13T20:27:23.918Z,15.80
2019-04-13T20:29:53.411Z,15.37
2019-04-13T20:32:23.561Z,15.70
2019-04-13T20:34:53.671Z,15.60
2019-04-13T20:37:23.130Z,16.07
2019-04-13T20:39:54.549Z,16.07
2019-04-13T20:42:26.222Z,14.87
2019-04-13T20:44:58.339Z,16.97
2019-04-13T20:47:31.044Z,14.47
2019-04-13T20:50:00.354Z,15.40
2019-04-13T20:52:29.024Z,14.10
2019-04-13T20:54:58.097Z,15.83
2019-04-13T20:57:26.689Z,15.17
2019-04-13T20:59:56.340Z,14.67
2019-04-13T21:02:25.026Z,15.07
2019-04-13T21:04:54.540Z,15.00
2019-04-13T21:07:26.986Z,15.17
2019-04-13T21:09:55.621Z,14.70
2019-04-13T21:12:25.054Z,16.07
2019-04-13T21:14:55.078Z,15.13
2019-04-13T21:17:24.731Z,15.67
2019-04-13T21:19:54.444Z,17.03
2019-04-13T21:22:25.135Z,16.03
2019-04-13T21:24:54.578Z,15.97
2019-04-13T21:27:23.185Z,14.83
2019-04-13T21:29:52.581Z,14.70
2019-04-13T21:32:22.423Z,14.90
2019-04-13T21:34:51.079Z,14.53
2019-04-13T21:37:20.476Z,14.67
2019-04-13T21:39:49.007Z,15.70
2019-04-13T21:42:17.596Z,14.43
2019-04-13T21:44:50.983Z,13.67
2019-04-13T21:47:19.109Z,14.60
2019-04-13T21:49:47.667Z,15.03
2019-04-13T21:52:21.701Z,15.60
2019-04-13T21:54:51.735Z,15.20
2019-04-13T21:57:21.846Z,15.97
2019-04-13T21:59:51.886Z,14.70
2019-04-13T22:02:22.586Z,15.60
2019-04-13T22:04:52.328Z,15.60
2019-04-13T22:07:22.202Z,17.33
2019-04-13T22:09:52.050Z,15.80
2019-04-13T22:12:22.050Z,16.33
2019-04-13T22:14:58.255Z,16.23
2019-04-13T22:17:22.574Z,15.77
2019-04-13T22:19:52.834Z,16.53
2019-04-13T22:22:22.781Z,15.43
2019-04-13T22:24:52.859Z,14.73
2019-04-13T22:27:22.571Z,15.27
2019-04-13T22:29:53.199Z,14.40
2019-04-13T22:32:25.334Z,15.30
2019-04-13T22:35:02.329Z,15.53
2019-04-13T22:37:31.945Z,15.57
2019-04-13T22:40:01.891Z,15.33
2019-04-13T22:42:31.571Z,17.27
2019-04-13T22:45:04.777Z,15.53
2019-04-13T22:47:32.060Z,16.07
2019-04-13T22:50:13.643Z,15.33
2019-04-13T22:53:00.600Z,14.33
2019-04-13T22:55:40.457Z,14.37
2019-04-13T22:58:09.561Z,14.43
2019-04-13T23:00:41.140Z,15.70
2019-04-13T23:03:15.931Z,14.67
2019-04-13T23:05:45.817Z,14.70
2019-04-13T23:08:33.490Z,14.37
2019-04-13T23:11:04.027Z,15.10
2019-04-13T23:13:32.815Z,14.70
2019-04-13T23:16:02.046Z,15.00
2019-04-13T23:18:31.814Z,15.03
2019-04-13T23:21:02.611Z,14.13
2019-04-13T23:23:31.534Z,14.27
2019-04-13T23:26:01.545Z,13.70
2019-04-13T23:28:31.413Z,14.20
2019-04-13T23:31:01.851Z,13.30
2019-04-13T23:33:34.340Z,14.33
2019-04-13T23:36:04.824Z,14.93
2019-04-13T23:38:33.775Z,15.80
2019-04-13T23:41:03.846Z,16.40
2019-04-13T23:43:32.784Z,16.43
2019-04-13T23:46:02.468Z,16.67
2019-04-13T23:48:34.968Z,17.27
2019-04-13T23:51:04.236Z,16.83
2019-04-13T23:53:33.673Z,15.27
2019-04-13T23:56:15.375Z,16.27
2019-04-13T23:58:47.494Z,15.63
